Time;durP1;ratioP1;P1;durP2;ratioP2;P2;SDS_P1;SDS_P2;PMS_P1;PMS_P2;Temp;Humidity;BMP_temperature;BMP_pressure;BME280_temperature;BME280_humidity;BME280_pressure;Samples;Min_cycle;Max_cycle;Signal;HPM_P1;HPM_P2
2023/09/09 00:02:07;;;;;;;2.70;2.50;;;;;;;;;;4918945;29;20039;-71
2023/09/09 00:04:33;;;;;;;3.15;2.20;;;;;;;;;;4918815;29;20504;-70
2023/09/09 00:07:03;;;;;;;2.38;2.20;;;;;;;;;;4918996;29;20035;-70
2023/09/09 00:09:32;;;;;;;2.40;2.30;;;;;;;;;;4935090;29;20031;-70
2023/09/09 00:11:58;;;;;;;3.65;2.55;;;;;;;;;;4918998;29;20051;-70
2023/09/09 00:14:25;;;;;;;2.20;2.00;;;;;;;;;;4934882;29;20178;-70
2023/09/09 00:16:52;;;;;;;2.40;2.20;;;;;;;;;;4918856;29;20062;-71
2023/09/09 00:19:21;;;;;;;2.30;2.20;;;;;;;;;;4951913;29;20042;-70
2023/09/09 00:21:49;;;;;;;2.15;1.95;;;;;;;;;;4919852;29;20090;-71
2023/09/09 00:27:08;;;;;;;2.38;2.20;;;;;;;;;;4937674;29;20039;-70
2023/09/09 00:29:38;;;;;;;2.30;2.10;;;;;;;;;;4917915;29;20035;-71
2023/09/09 00:32:17;;;;;;;2.60;2.20;;;;;;;;;;4921880;29;20095;-72
2023/09/09 00:34:43;;;;;;;2.00;1.90;;;;;;;;;;4932825;29;20585;-70
2023/09/09 00:37:16;;;;;;;1.92;1.73;;;;;;;;;;4920240;29;20039;-71
2023/09/09 00:39:42;;;;;;;1.88;1.80;;;;;;;;;;4948124;28;20058;-70
2023/09/09 00:42:08;;;;;;;1.95;1.85;;;;;;;;;;4969533;28;20089;-71
2023/09/09 00:44:35;;;;;;;2.30;1.88;;;;;;;;;;4930040;29;20407;-72
2023/09/09 00:47:01;;;;;;;2.00;1.83;;;;;;;;;;4899607;29;20032;-71
2023/09/09 00:49:28;;;;;;;1.92;1.70;;;;;;;;;;4915564;29;20102;-72
2023/09/09 00:51:56;;;;;;;2.22;2.03;;;;;;;;;;4930717;29;20051;-70
2023/09/09 00:54:22;;;;;;;5.28;1.85;;;;;;;;;;4915540;29;20035;-71
2023/09/09 00:56:50;;;;;;;2.58;1.80;;;;;;;;;;4915172;29;20040;-69
2023/09/09 00:59:18;;;;;;;1.90;1.80;;;;;;;;;;4885309;29;20063;-71
2023/09/09 01:01:47;;;;;;;2.45;2.30;;;;;;;;;;4915232;29;20035;-71
2023/09/09 01:04:13;;;;;;;4.50;2.00;;;;;;;;;;4915571;29;20042;-71
2023/09/09 01:06:39;;;;;;;2.05;1.95;;;;;;;;;;4932166;29;20039;-70
2023/09/09 01:09:09;;;;;;;2.50;2.30;;;;;;;;;;4915577;29;20037;-70
2023/09/09 01:11:35;;;;;;;2.20;2.10;;;;;;;;;;4915233;29;20535;-71
2023/09/09 01:14:02;;;;;;;6.53;1.63;;;;;;;;;;4931055;29;20028;-71
2023/09/09 01:16:28;;;;;;;2.10;1.95;;;;;;;;;;4932115;29;20551;-70
2023/09/09 01:18:54;;;;;;;2.08;1.92;;;;;;;;;;4930817;29;20032;-70
2023/09/09 01:21:21;;;;;;;2.50;2.30;;;;;;;;;;4915262;29;20047;-71
2023/09/09 01:23:47;;;;;;;2.20;2.10;;;;;;;;;;4915011;29;20204;-70
2023/09/09 01:26:13;;;;;;;5.80;2.60;;;;;;;;;;4931864;29;20110;-70
2023/09/09 01:28:39;;;;;;;2.72;2.53;;;;;;;;;;4933781;29;20102;-70
2023/09/09 01:31:05;;;;;;;2.80;2.60;;;;;;;;;;4931798;29;20032;-71
2023/09/09 01:33:31;;;;;;;2.75;2.55;;;;;;;;;;4900174;29;20036;-71
2023/09/09 01:35:57;;;;;;;2.83;2.67;;;;;;;;;;4932068;29;20042;-71
2023/09/09 01:38:23;;;;;;;2.67;2.50;;;;;;;;;;4931707;29;20063;-71
2023/09/09 01:40:49;;;;;;;2.78;2.67;;;;;;;;;;4931919;29;20048;-72
2023/09/09 01:43:15;;;;;;;2.75;2.58;;;;;;;;;;4918383;29;20066;-72
2023/09/09 01:45:41;;;;;;;3.47;2.90;;;;;;;;;;4934059;29;20035;-71
2023/09/09 01:48:07;;;;;;;3.40;3.10;;;;;;;;;;4918298;29;20087;-70
2023/09/09 01:50:34;;;;;;;3.80;3.50;;;;;;;;;;4933986;29;20071;-72
2023/09/09 01:53:01;;;;;;;3.60;3.30;;;;;;;;;;4935079;29;20500;-70
2023/09/09 01:55:27;;;;;;;5.45;3.33;;;;;;;;;;4935292;29;20036;-72
2023/09/09 01:57:53;;;;;;;5.28;3.70;;;;;;;;;;4934803;29;20050;-71
2023/09/09 02:00:19;;;;;;;4.28;3.45;;;;;;;;;;4934062;29;20060;-71
2023/09/09 02:02:45;;;;;;;3.85;3.42;;;;;;;;;;4933679;29;20061;-72
2023/09/09 02:05:11;;;;;;;3.90;3.60;;;;;;;;;;4933792;29;20027;-72
2023/09/09 02:07:37;;;;;;;4.72;4.43;;;;;;;;;;4917658;29;20440;-72
2023/09/09 02:10:03;;;;;;;4.65;3.85;;;;;;;;;;4933818;29;20501;-71
2023/09/09 02:12:30;;;;;;;6.53;6.13;;;;;;;;;;4934729;29;20066;-71
2023/09/09 02:14:56;;;;;;;4.65;4.35;;;;;;;;;;4917689;29;20488;-71
2023/09/09 02:17:23;;;;;;;6.43;5.78;;;;;;;;;;4933712;29;20072;-71
2023/09/09 02:19:54;;;;;;;6.97;6.47;;;;;;;;;;4917674;29;20095;-71
2023/09/09 02:22:21;;;;;;;6.40;6.00;;;;;;;;;;4918016;29;20043;-71
2023/09/09 02:24:47;;;;;;;6.82;6.32;;;;;;;;;;4949235;28;20086;-72
2023/09/09 02:27:13;;;;;;;7.28;6.68;;;;;;;;;;4933292;29;20062;-72
2023/09/09 02:29:39;;;;;;;7.45;6.75;;;;;;;;;;4934366;29;20058;-72
2023/09/09 02:32:05;;;;;;;7.80;7.10;;;;;;;;;;4934445;29;20047;-70
2023/09/09 02:34:31;;;;;;;8.75;8.20;;;;;;;;;;4933696;29;20036;-70
2023/09/09 02:37:17;;;;;;;7.90;7.30;;;;;;;;;;4918374;29;20098;-70
2023/09/09 02:39:44;;;;;;;7.60;7.00;;;;;;;;;;4949586;29;20062;-70
2023/09/09 02:42:10;;;;;;;7.85;7.20;;;;;;;;;;4937348;29;20415;-71
2023/09/09 02:44:36;;;;;;;7.30;6.78;;;;;;;;;;4936186;29;20043;-73
2023/09/09 02:47:02;;;;;;;6.13;5.72;;;;;;;;;;4936320;29;20039;-71
2023/09/09 02:49:28;;;;;;;6.47;6.03;;;;;;;;;;4952362;29;20420;-69
2023/09/09 02:51:54;;;;;;;5.20;4.80;;;;;;;;;;4935020;29;20054;-71
2023/09/09 02:54:20;;;;;;;5.68;5.28;;;;;;;;;;4953503;29;20602;-70
2023/09/09 02:56:46;;;;;;;4.93;4.63;;;;;;;;;;4951706;28;20455;-70
2023/09/09 02:59:12;;;;;;;5.68;5.20;;;;;;;;;;4935905;29;20047;-72
2023/09/09 03:01:39;;;;;;;6.57;6.13;;;;;;;;;;4952966;28;20093;-71
2023/09/09 03:04:05;;;;;;;5.72;5.32;;;;;;;;;;4919987;29;20102;-71
2023/09/09 03:06:31;;;;;;;6.82;6.32;;;;;;;;;;4951733;29;20035;-72
2023/09/09 03:08:57;;;;;;;6.53;6.03;;;;;;;;;;4951381;29;20038;-70
2023/09/09 03:11:24;;;;;;;4.80;4.55;;;;;;;;;;4935799;29;20507;-69
2023/09/09 03:13:50;;;;;;;4.70;4.35;;;;;;;;;;4935367;29;20511;-72
2023/09/09 03:16:16;;;;;;;4.65;4.35;;;;;;;;;;4952834;28;20039;-72
2023/09/09 03:18:43;;;;;;;4.30;4.00;;;;;;;;;;4920138;29;20039;-71
2023/09/09 03:21:10;;;;;;;5.03;3.50;;;;;;;;;;4952783;29;20118;-71
2023/09/09 03:23:36;;;;;;;3.22;2.85;;;;;;;;;;4920166;29;20047;-70
2023/09/09 03:26:04;;;;;;;4.70;2.88;;;;;;;;;;4935846;29;20046;-71
2023/09/09 03:28:30;;;;;;;3.00;2.80;;;;;;;;;;4935648;29;20062;-70
2023/09/09 03:30:59;;;;;;;3.13;2.80;;;;;;;;;;4936392;29;20039;-72
2023/09/09 03:33:30;;;;;;;2.78;2.58;;;;;;;;;;4937713;29;20046;-71
2023/09/09 03:35:56;;;;;;;2.85;2.40;;;;;;;;;;4936985;29;20424;-72
2023/09/09 03:38:23;;;;;;;2.88;2.67;;;;;;;;;;4954244;28;20047;-71
2023/09/09 03:40:49;;;;;;;2.95;2.75;;;;;;;;;;4935538;29;20058;-71
2023/09/09 03:43:15;;;;;;;4.78;2.95;;;;;;;;;;4953029;28;20578;-72
2023/09/09 03:45:42;;;;;;;2.20;2.10;;;;;;;;;;4952685;29;20093;-72
2023/09/09 03:48:08;;;;;;;3.33;3.13;;;;;;;;;;4919675;29;20062;-72
2023/09/09 03:50:35;;;;;;;2.72;2.10;;;;;;;;;;4920318;29;20079;-71
2023/09/09 03:53:01;;;;;;;5.90;2.42;;;;;;;;;;4934945;29;20043;-71
2023/09/09 03:55:27;;;;;;;5.43;2.20;;;;;;;;;;4903409;29;20057;-71
2023/09/09 03:57:54;;;;;;;2.50;2.30;;;;;;;;;;4934744;29;20039;-71
2023/09/09 04:00:21;;;;;;;5.18;2.90;;;;;;;;;;4919484;29;20035;-71
2023/09/09 04:02:47;;;;;;;2.47;2.20;;;;;;;;;;4934717;29;20106;-70
2023/09/09 04:05:14;;;;;;;4.43;2.58;;;;;;;;;;4935007;29;20039;-71
2023/09/09 04:07:43;;;;;;;10.27;2.38;;;;;;;;;;4936053;29;20043;-71
2023/09/09 04:10:11;;;;;;;7.38;2.30;;;;;;;;;;4936395;29;20071;-72
2023/09/09 04:12:38;;;;;;;2.35;2.25;;;;;;;;;;4935150;29;20456;-72
2023/09/09 04:15:05;;;;;;;4.50;2.70;;;;;;;;;;4918862;29;20038;-71
2023/09/09 04:17:32;;;;;;;2.70;2.50;;;;;;;;;;4952014;29;20035;-69
2023/09/09 04:19:58;;;;;;;2.00;1.90;;;;;;;;;;4950541;29;20038;-70
2023/09/09 04:22:26;;;;;;;2.28;2.13;;;;;;;;;;4950716;29;20046;-71
2023/09/09 04:24:54;;;;;;;3.40;1.90;;;;;;;;;;4950326;28;20119;-71
2023/09/09 04:27:21;;;;;;;2.00;1.90;;;;;;;;;;4934748;29;20046;-70
2023/09/09 04:29:48;;;;;;;2.17;1.60;;;;;;;;;;4951429;29;20118;-70
2023/09/09 04:32:17;;;;;;;2.28;1.88;;;;;;;;;;4934501;29;20051;-71
2023/09/09 04:34:44;;;;;;;4.18;1.90;;;;;;;;;;4934474;29;20035;-72
2023/09/09 04:37:10;;;;;;;2.17;1.98;;;;;;;;;;4934611;29;20058;-72
2023/09/09 04:39:36;;;;;;;4.93;2.28;;;;;;;;;;4951713;28;20432;-72
2023/09/09 04:42:02;;;;;;;3.47;2.25;;;;;;;;;;4951490;29;20039;-72
2023/09/09 04:44:28;;;;;;;3.50;2.08;;;;;;;;;;4950296;28;20504;-73
2023/09/09 04:46:54;;;;;;;2.05;1.95;;;;;;;;;;4951334;29;20511;-71
2023/09/09 04:49:22;;;;;;;2.13;1.92;;;;;;;;;;4950239;29;20035;-71
2023/09/09 04:51:49;;;;;;;3.75;1.90;;;;;;;;;;4950153;28;20238;-71
2023/09/09 04:54:15;;;;;;;1.90;1.80;;;;;;;;;;4934396;29;20090;-71
2023/09/09 04:56:41;;;;;;;1.77;1.67;;;;;;;;;;4934362;29;20429;-71
2023/09/09 04:59:07;;;;;;;1.88;1.77;;;;;;;;;;4952061;29;20051;-73
2023/09/09 05:01:33;;;;;;;2.20;2.00;;;;;;;;;;4918639;29;20043;-70
2023/09/09 05:04:00;;;;;;;2.45;1.50;;;;;;;;;;4951237;28;20042;-70
2023/09/09 05:06:26;;;;;;;1.92;1.83;;;;;;;;;;4951821;29;20050;-70
2023/09/09 05:08:52;;;;;;;1.85;1.75;;;;;;;;;;4934214;29;20575;-71
2023/09/09 05:11:19;;;;;;;2.08;1.60;;;;;;;;;;4951656;28;20043;-72
2023/09/09 05:13:45;;;;;;;1.70;1.60;;;;;;;;;;4934086;29;20122;-71
2023/09/09 05:16:11;;;;;;;2.72;1.92;;;;;;;;;;4936336;29;20043;-72
2023/09/09 05:18:37;;;;;;;2.47;1.73;;;;;;;;;;4937950;29;20414;-71
2023/09/09 05:21:03;;;;;;;1.50;1.40;;;;;;;;;;4953535;28;20095;-71
2023/09/09 05:23:29;;;;;;;1.70;1.60;;;;;;;;;;4947801;28;20537;-70
2023/09/09 05:25:55;;;;;;;1.40;1.30;;;;;;;;;;4955748;28;20030;-71
2023/09/09 05:28:21;;;;;;;1.70;1.60;;;;;;;;;;4964298;28;20407;-71
2023/09/09 05:30:48;;;;;;;1.30;1.30;;;;;;;;;;4956894;28;20121;-71
2023/09/09 05:33:14;;;;;;;1.35;1.25;;;;;;;;;;4957194;28;20142;-70
2023/09/09 05:35:40;;;;;;;1.67;1.30;;;;;;;;;;4957198;28;20035;-70
2023/09/09 05:38:06;;;;;;;2.00;1.60;;;;;;;;;;4970104;28;20077;-72
2023/09/09 05:40:32;;;;;;;1.75;1.60;;;;;;;;;;4968727;28;20061;-72
2023/09/09 05:42:58;;;;;;;2.50;1.42;;;;;;;;;;4953992;29;20516;-72
2023/09/09 05:45:24;;;;;;;1.60;1.50;;;;;;;;;;4971528;28;20031;-71
2023/09/09 05:47:50;;;;;;;5.00;1.10;;;;;;;;;;4955624;28;20034;-72
2023/09/09 05:50:16;;;;;;;2.45;1.10;;;;;;;;;;4971959;28;20030;-71
2023/09/09 05:52:42;;;;;;;2.28;1.88;;;;;;;;;;4972320;28;20711;-71
2023/09/09 05:55:09;;;;;;;2.15;1.00;;;;;;;;;;4943088;28;20031;-71
2023/09/09 05:57:35;;;;;;;5.45;1.33;;;;;;;;;;4940291;28;20047;-71
2023/09/09 06:00:02;;;;;;;1.10;1.10;;;;;;;;;;4955946;28;20089;-72
2023/09/09 06:02:39;;;;;;;1.55;1.20;;;;;;;;;;4942916;28;20046;-73
2023/09/09 06:05:06;;;;;;;1.40;1.15;;;;;;;;;;4971600;28;20042;-72
2023/09/09 06:07:34;;;;;;;1.23;1.20;;;;;;;;;;4925326;28;20121;-73
2023/09/09 06:10:00;;;;;;;1.60;1.10;;;;;;;;;;4955388;28;20034;-74
2023/09/09 06:12:28;;;;;;;1.40;1.30;;;;;;;;;;4955273;28;20101;-72
2023/09/09 06:14:54;;;;;;;1.58;1.10;;;;;;;;;;4939234;28;20125;-73
2023/09/09 06:17:20;;;;;;;1.45;1.35;;;;;;;;;;4955391;28;20087;-71
2023/09/09 06:19:46;;;;;;;1.00;1.00;;;;;;;;;;4955339;28;20047;-71
2023/09/09 06:22:12;;;;;;;0.82;0.82;;;;;;;;;;4923279;28;20396;-71
2023/09/09 06:24:38;;;;;;;0.95;0.95;;;;;;;;;;4972613;28;20046;-71
2023/09/09 06:27:05;;;;;;;3.65;1.08;;;;;;;;;;4922208;28;20039;-73
2023/09/09 06:29:31;;;;;;;5.10;1.20;;;;;;;;;;4955415;28;20498;-70
2023/09/09 06:31:57;;;;;;;1.42;1.33;;;;;;;;;;4951812;28;20043;-71
2023/09/09 06:34:23;;;;;;;1.30;1.30;;;;;;;;;;4967939;28;20039;-72
2023/09/09 06:36:50;;;;;;;1.23;1.23;;;;;;;;;;4961740;28;20042;-71
